sensor_id;sensor_type;location;lat;lon;timestamp;temperature;humidity
1155;DHT22;566;48.414;9.118;2023-03-23T00:01:11;13.10;73.20
1155;DHT22;566;48.414;9.118;2023-03-23T00:03:42;13.10;73.80
1155;DHT22;566;48.414;9.118;2023-03-23T00:06:09;13.10;73.30
1155;DHT22;566;48.414;9.118;2023-03-23T00:08:38;13.10;73.30
1155;DHT22;566;48.414;9.118;2023-03-23T00:11:20;13.20;73.20
1155;DHT22;566;48.414;9.118;2023-03-23T00:13:50;13.10;73.40
1155;DHT22;566;48.414;9.118;2023-03-23T00:16:21;13.20;73.20
1155;DHT22;566;48.414;9.118;2023-03-23T00:18:54;13.10;73.30
1155;DHT22;566;48.414;9.118;2023-03-23T00:21:21;13.20;73.10
1155;DHT22;566;48.414;9.118;2023-03-23T00:23:51;13.20;73.20
1155;DHT22;566;48.414;9.118;2023-03-23T00:26:19;13.10;73.20
1155;DHT22;566;48.414;9.118;2023-03-23T00:28:47;13.10;73.10
1155;DHT22;566;48.414;9.118;2023-03-23T00:31:13;13.10;73.50
1155;DHT22;566;48.414;9.118;2023-03-23T00:33:39;13.20;73.60
1155;DHT22;566;48.414;9.118;2023-03-23T00:36:10;13.20;73.90
1155;DHT22;566;48.414;9.118;2023-03-23T00:38:37;13.20;73.20
1155;DHT22;566;48.414;9.118;2023-03-23T00:41:03;13.30;73.60
1155;DHT22;566;48.414;9.118;2023-03-23T00:43:30;13.20;74.30
1155;DHT22;566;48.414;9.118;2023-03-23T00:45:57;13.10;74.00
1155;DHT22;566;48.414;9.118;2023-03-23T00:48:27;13.20;73.70
1155;DHT22;566;48.414;9.118;2023-03-23T00:50:53;13.20;74.60
1155;DHT22;566;48.414;9.118;2023-03-23T00:53:19;13.20;73.80
1155;DHT22;566;48.414;9.118;2023-03-23T00:55:46;13.20;74.10
1155;DHT22;566;48.414;9.118;2023-03-23T00:58:13;13.20;74.30
1155;DHT22;566;48.414;9.118;2023-03-23T01:00:40;13.10;74.90
1155;DHT22;566;48.414;9.118;2023-03-23T01:03:06;13.00;75.20
1155;DHT22;566;48.414;9.118;2023-03-23T01:05:36;13.10;74.10
1155;DHT22;566;48.414;9.118;2023-03-23T01:08:02;13.40;73.70
1155;DHT22;566;48.414;9.118;2023-03-23T01:10:32;13.40;74.10
1155;DHT22;566;48.414;9.118;2023-03-23T01:13:01;13.40;74.30
1155;DHT22;566;48.414;9.118;2023-03-23T01:15:28;13.50;73.50
1155;DHT22;566;48.414;9.118;2023-03-23T01:17:55;13.60;73.20
1155;DHT22;566;48.414;9.118;2023-03-23T01:20:21;13.70;73.10
1155;DHT22;566;48.414;9.118;2023-03-23T01:22:46;13.70;73.20
1155;DHT22;566;48.414;9.118;2023-03-23T01:25:12;13.70;73.00
1155;DHT22;566;48.414;9.118;2023-03-23T01:27:39;13.70;73.10
1155;DHT22;566;48.414;9.118;2023-03-23T01:30:07;13.70;73.20
1155;DHT22;566;48.414;9.118;2023-03-23T01:32:34;13.70;73.20
1155;DHT22;566;48.414;9.118;2023-03-23T01:34:59;13.70;73.20
1155;DHT22;566;48.414;9.118;2023-03-23T01:37:25;13.70;73.50
1155;DHT22;566;48.414;9.118;2023-03-23T01:39:56;13.70;73.40
1155;DHT22;566;48.414;9.118;2023-03-23T01:42:31;13.70;73.50
1155;DHT22;566;48.414;9.118;2023-03-23T01:45:25;13.80;73.40
1155;DHT22;566;48.414;9.118;2023-03-23T01:47:56;13.80;73.50
1155;DHT22;566;48.414;9.118;2023-03-23T01:50:24;13.80;73.70
1155;DHT22;566;48.414;9.118;2023-03-23T01:52:52;13.80;73.50
1155;DHT22;566;48.414;9.118;2023-03-23T01:55:19;13.80;73.50
1155;DHT22;566;48.414;9.118;2023-03-23T01:57:46;13.80;73.70
1155;DHT22;566;48.414;9.118;2023-03-23T02:00:13;13.80;73.90
1155;DHT22;566;48.414;9.118;2023-03-23T02:02:43;13.70;74.20
1155;DHT22;566;48.414;9.118;2023-03-23T02:05:14;13.70;74.10
1155;DHT22;566;48.414;9.118;2023-03-23T02:07:43;13.80;73.90
1155;DHT22;566;48.414;9.118;2023-03-23T02:10:09;13.80;74.10
1155;DHT22;566;48.414;9.118;2023-03-23T02:12:35;13.80;74.30
1155;DHT22;566;48.414;9.118;2023-03-23T02:15:01;13.80;74.50
1155;DHT22;566;48.414;9.118;2023-03-23T02:17:38;13.80;74.40
1155;DHT22;566;48.414;9.118;2023-03-23T02:28:40;13.80;75.30
1155;DHT22;566;48.414;9.118;2023-03-23T02:34:15;13.90;75.40
1155;DHT22;566;48.414;9.118;2023-03-23T02:36:56;13.90;75.30
1155;DHT22;566;48.414;9.118;2023-03-23T02:39:47;13.90;75.60
1155;DHT22;566;48.414;9.118;2023-03-23T02:42:23;14.00;75.40
1155;DHT22;566;48.414;9.118;2023-03-23T02:44:53;14.00;75.40
1155;DHT22;566;48.414;9.118;2023-03-23T02:47:25;13.90;75.20
1155;DHT22;566;48.414;9.118;2023-03-23T02:49:54;13.90;75.20
1155;DHT22;566;48.414;9.118;2023-03-23T02:52:24;14.00;75.30
1155;DHT22;566;48.414;9.118;2023-03-23T02:54:52;14.10;74.90
1155;DHT22;566;48.414;9.118;2023-03-23T02:57:19;14.00;74.90
1155;DHT22;566;48.414;9.118;2023-03-23T02:59:45;14.00;74.60
1155;DHT22;566;48.414;9.118;2023-03-23T03:02:44;14.00;74.60
1155;DHT22;566;48.414;9.118;2023-03-23T03:05:42;13.90;74.90
1155;DHT22;566;48.414;9.118;2023-03-23T03:11:06;13.90;74.60
1155;DHT22;566;48.414;9.118;2023-03-23T03:16:32;13.80;74.80
1155;DHT22;566;48.414;9.118;2023-03-23T03:21:45;13.80;74.40
1155;DHT22;566;48.414;9.118;2023-03-23T03:24:16;13.90;74.20
1155;DHT22;566;48.414;9.118;2023-03-23T03:26:46;13.90;73.90
1155;DHT22;566;48.414;9.118;2023-03-23T03:29:16;14.00;73.80
1155;DHT22;566;48.414;9.118;2023-03-23T03:31:45;14.00;73.50
1155;DHT22;566;48.414;9.118;2023-03-23T03:34:11;14.10;73.00
1155;DHT22;566;48.414;9.118;2023-03-23T03:36:38;14.10;73.10
1155;DHT22;566;48.414;9.118;2023-03-23T03:39:08;14.20;72.90
1155;DHT22;566;48.414;9.118;2023-03-23T03:41:35;14.20;72.60
1155;DHT22;566;48.414;9.118;2023-03-23T03:44:02;14.20;72.70
1155;DHT22;566;48.414;9.118;2023-03-23T03:46:28;14.20;72.60
1155;DHT22;566;48.414;9.118;2023-03-23T03:48:56;14.20;72.50
1155;DHT22;566;48.414;9.118;2023-03-23T03:51:22;14.20;72.70
1155;DHT22;566;48.414;9.118;2023-03-23T03:53:51;14.10;72.90
1155;DHT22;566;48.414;9.118;2023-03-23T03:56:17;14.20;72.60
1155;DHT22;566;48.414;9.118;2023-03-23T03:58:43;14.20;72.60
1155;DHT22;566;48.414;9.118;2023-03-23T04:01:09;14.10;73.20
1155;DHT22;566;48.414;9.118;2023-03-23T04:03:39;14.00;72.50
1155;DHT22;566;48.414;9.118;2023-03-23T04:06:05;14.10;72.50
1155;DHT22;566;48.414;9.118;2023-03-23T04:08:31;14.20;71.90
1155;DHT22;566;48.414;9.118;2023-03-23T04:10:57;14.20;72.20
1155;DHT22;566;48.414;9.118;2023-03-23T04:13:23;14.00;72.50
1155;DHT22;566;48.414;9.118;2023-03-23T04:15:49;13.90;73.10
1155;DHT22;566;48.414;9.118;2023-03-23T04:18:15;13.90;73.00
1155;DHT22;566;48.414;9.118;2023-03-23T04:20:47;13.90;72.90
1155;DHT22;566;48.414;9.118;2023-03-23T04:23:15;13.90;72.90
1155;DHT22;566;48.414;9.118;2023-03-23T04:25:46;13.90;73.00
1155;DHT22;566;48.414;9.118;2023-03-23T04:28:12;13.90;72.80
1155;DHT22;566;48.414;9.118;2023-03-23T04:30:38;13.80;73.20
1155;DHT22;566;48.414;9.118;2023-03-23T04:33:04;13.70;73.80
1155;DHT22;566;48.414;9.118;2023-03-23T04:35:30;13.70;73.40
1155;DHT22;566;48.414;9.118;2023-03-23T04:37:56;13.80;73.40
1155;DHT22;566;48.414;9.118;2023-03-23T04:40:23;13.80;73.40
1155;DHT22;566;48.414;9.118;2023-03-23T04:42:49;13.80;73.60
1155;DHT22;566;48.414;9.118;2023-03-23T04:45:19;13.80;73.70
1155;DHT22;566;48.414;9.118;2023-03-23T04:47:51;13.80;73.40
1155;DHT22;566;48.414;9.118;2023-03-23T04:50:26;13.80;73.80
1155;DHT22;566;48.414;9.118;2023-03-23T04:52:52;13.80;73.70
1155;DHT22;566;48.414;9.118;2023-03-23T04:55:20;13.70;74.00
1155;DHT22;566;48.414;9.118;2023-03-23T04:57:46;13.70;74.40
1155;DHT22;566;48.414;9.118;2023-03-23T05:00:13;13.70;74.50
1155;DHT22;566;48.414;9.118;2023-03-23T05:02:40;13.60;74.80
1155;DHT22;566;48.414;9.118;2023-03-23T05:05:11;13.50;75.10
1155;DHT22;566;48.414;9.118;2023-03-23T05:07:38;13.50;74.70
1155;DHT22;566;48.414;9.118;2023-03-23T05:10:06;13.50;74.70
1155;DHT22;566;48.414;9.118;2023-03-23T05:12:33;13.60;74.10
1155;DHT22;566;48.414;9.118;2023-03-23T05:14:59;13.80;73.70
1155;DHT22;566;48.414;9.118;2023-03-23T05:17:25;13.80;73.80
1155;DHT22;566;48.414;9.118;2023-03-23T05:19:51;13.70;73.80
1155;DHT22;566;48.414;9.118;2023-03-23T05:22:17;13.70;73.80
1155;DHT22;566;48.414;9.118;2023-03-23T05:24:43;13.70;73.50
1155;DHT22;566;48.414;9.118;2023-03-23T05:27:09;13.90;72.80
1155;DHT22;566;48.414;9.118;2023-03-23T05:29:35;14.00;72.70
1155;DHT22;566;48.414;9.118;2023-03-23T05:32:04;14.00;72.50
1155;DHT22;566;48.414;9.118;2023-03-23T05:34:31;14.00;72.50
1155;DHT22;566;48.414;9.118;2023-03-23T05:37:01;14.00;72.50
1155;DHT22;566;48.414;9.118;2023-03-23T05:39:29;13.90;72.50
1155;DHT22;566;48.414;9.118;2023-03-23T05:41:55;13.90;72.60
1155;DHT22;566;48.414;9.118;2023-03-23T05:44:21;14.00;72.20
1155;DHT22;566;48.414;9.118;2023-03-23T05:46:46;14.10;71.90
1155;DHT22;566;48.414;9.118;2023-03-23T05:49:16;14.20;72.20
1155;DHT22;566;48.414;9.118;2023-03-23T05:51:46;14.10;72.30
1155;DHT22;566;48.414;9.118;2023-03-23T05:54:13;14.00;72.10
1155;DHT22;566;48.414;9.118;2023-03-23T05:56:40;14.10;72.20
1155;DHT22;566;48.414;9.118;2023-03-23T05:59:06;14.10;72.10
1155;DHT22;566;48.414;9.118;2023-03-23T06:01:32;14.20;71.40
1155;DHT22;566;48.414;9.118;2023-03-23T06:03:58;14.30;71.70
1155;DHT22;566;48.414;9.118;2023-03-23T06:06:27;14.20;71.90
1155;DHT22;566;48.414;9.118;2023-03-23T06:08:54;14.20;72.10
1155;DHT22;566;48.414;9.118;2023-03-23T06:11:20;14.20;71.60
1155;DHT22;566;48.414;9.118;2023-03-23T06:13:46;14.30;72.10
1155;DHT22;566;48.414;9.118;2023-03-23T06:16:11;14.30;71.60
1155;DHT22;566;48.414;9.118;2023-03-23T06:18:37;14.30;71.60
1155;DHT22;566;48.414;9.118;2023-03-23T06:21:03;14.40;71.20
1155;DHT22;566;48.414;9.118;2023-03-23T06:23:29;14.50;71.30
1155;DHT22;566;48.414;9.118;2023-03-23T06:26:04;14.50;71.50
1155;DHT22;566;48.414;9.118;2023-03-23T06:28:30;14.60;71.60
1155;DHT22;566;48.414;9.118;2023-03-23T06:31:03;14.60;71.40
1155;DHT22;566;48.414;9.118;2023-03-23T06:33:35;14.70;71.30
1155;DHT22;566;48.414;9.118;2023-03-23T06:36:01;14.70;71.50
1155;DHT22;566;48.414;9.118;2023-03-23T06:38:27;14.80;70.80
1155;DHT22;566;48.414;9.118;2023-03-23T06:40:53;14.90;71.00
1155;DHT22;566;48.414;9.118;2023-03-23T06:43:19;15.00;71.10
1155;DHT22;566;48.414;9.118;2023-03-23T06:45:45;15.00;70.80
1155;DHT22;566;48.414;9.118;2023-03-23T06:48:11;15.00;71.30
1155;DHT22;566;48.414;9.118;2023-03-23T06:50:37;15.00;71.20
1155;DHT22;566;48.414;9.118;2023-03-23T06:53:03;15.00;71.30
1155;DHT22;566;48.414;9.118;2023-03-23T06:55:34;15.00;71.60
1155;DHT22;566;48.414;9.118;2023-03-23T06:58:00;14.90;71.60
1155;DHT22;566;48.414;9.118;2023-03-23T07:00:27;14.90;71.60
1155;DHT22;566;48.414;9.118;2023-03-23T07:02:52;14.90;72.10
1155;DHT22;566;48.414;9.118;2023-03-23T07:05:18;14.90;71.70
1155;DHT22;566;48.414;9.118;2023-03-23T07:07:44;14.80;72.40
1155;DHT22;566;48.414;9.118;2023-03-23T07:10:09;14.80;72.40
1155;DHT22;566;48.414;9.118;2023-03-23T07:12:35;14.80;72.80
1155;DHT22;566;48.414;9.118;2023-03-23T07:15:04;14.80;73.20
1155;DHT22;566;48.414;9.118;2023-03-23T07:17:30;14.80;73.40
1155;DHT22;566;48.414;9.118;2023-03-23T07:19:56;14.80;73.70
1155;DHT22;566;48.414;9.118;2023-03-23T07:22:22;14.70;73.60
1155;DHT22;566;48.414;9.118;2023-03-23T07:24:47;14.70;73.70
1155;DHT22;566;48.414;9.118;2023-03-23T07:27:13;14.80;74.00
1155;DHT22;566;48.414;9.118;2023-03-23T07:29:39;14.80;74.20
1155;DHT22;566;48.414;9.118;2023-03-23T07:32:05;14.80;74.10
1155;DHT22;566;48.414;9.118;2023-03-23T07:34:31;14.60;74.70
1155;DHT22;566;48.414;9.118;2023-03-23T07:36:57;14.50;75.10
1155;DHT22;566;48.414;9.118;2023-03-23T07:39:23;14.50;75.40
1155;DHT22;566;48.414;9.118;2023-03-23T07:41:49;14.50;75.40
1155;DHT22;566;48.414;9.118;2023-03-23T07:44:15;14.50;75.80
1155;DHT22;566;48.414;9.118;2023-03-23T07:46:40;14.40;76.20
1155;DHT22;566;48.414;9.118;2023-03-23T07:49:07;14.40;76.20
1155;DHT22;566;48.414;9.118;2023-03-23T07:51:33;14.40;76.80
1155;DHT22;566;48.414;9.118;2023-03-23T07:53:59;14.40;76.90
1155;DHT22;566;48.414;9.118;2023-03-23T07:56:27;14.40;76.80
1155;DHT22;566;48.414;9.118;2023-03-23T07:58:53;14.40;77.20
1155;DHT22;566;48.414;9.118;2023-03-23T08:01:18;14.60;76.90
1155;DHT22;566;48.414;9.118;2023-03-23T08:03:44;14.70;76.80
1155;DHT22;566;48.414;9.118;2023-03-23T08:06:10;14.90;76.40
1155;DHT22;566;48.414;9.118;2023-03-23T08:08:36;14.90;76.50
1155;DHT22;566;48.414;9.118;2023-03-23T08:11:02;14.90;76.40
1155;DHT22;566;48.414;9.118;2023-03-23T08:13:28;14.90;76.80
1155;DHT22;566;48.414;9.118;2023-03-23T08:15:54;14.90;76.80
1155;DHT22;566;48.414;9.118;2023-03-23T08:18:20;15.10;76.60
1155;DHT22;566;48.414;9.118;2023-03-23T08:20:46;15.10;76.50
1155;DHT22;566;48.414;9.118;2023-03-23T08:23:11;15.00;76.70
1155;DHT22;566;48.414;9.118;2023-03-23T08:25:38;14.90;77.40
1155;DHT22;566;48.414;9.118;2023-03-23T08:28:04;15.00;77.60
1155;DHT22;566;48.414;9.118;2023-03-23T08:30:30;15.10;77.30
1155;DHT22;566;48.414;9.118;2023-03-23T08:32:59;15.10;77.20
1155;DHT22;566;48.414;9.118;2023-03-23T08:35:25;15.10;77.40
1155;DHT22;566;48.414;9.118;2023-03-23T08:37:51;15.20;77.90
1155;DHT22;566;48.414;9.118;2023-03-23T08:40:19;15.20;77.20
1155;DHT22;566;48.414;9.118;2023-03-23T08:42:46;15.20;77.30
1155;DHT22;566;48.414;9.118;2023-03-23T08:45:15;15.10;78.10
1155;DHT22;566;48.414;9.118;2023-03-23T08:47:42;15.10;78.00
1155;DHT22;566;48.414;9.118;2023-03-23T08:50:11;15.20;78.00
1155;DHT22;566;48.414;9.118;2023-03-23T08:52:38;15.00;78.60
1155;DHT22;566;48.414;9.118;2023-03-23T08:55:04;14.90;79.00
1155;DHT22;566;48.414;9.118;2023-03-23T08:57:30;14.80;79.10
1155;DHT22;566;48.414;9.118;2023-03-23T08:59:56;14.90;80.00
1155;DHT22;566;48.414;9.118;2023-03-23T09:02:27;14.90;79.20
1155;DHT22;566;48.414;9.118;2023-03-23T09:04:53;14.70;79.90
1155;DHT22;566;48.414;9.118;2023-03-23T09:07:19;14.60;80.30
1155;DHT22;566;48.414;9.118;2023-03-23T09:09:45;14.60;80.60
1155;DHT22;566;48.414;9.118;2023-03-23T09:12:11;14.70;80.60
1155;DHT22;566;48.414;9.118;2023-03-23T09:14:37;14.80;81.30
1155;DHT22;566;48.414;9.118;2023-03-23T09:17:04;15.00;80.50
1155;DHT22;566;48.414;9.118;2023-03-23T09:19:31;14.90;80.00
1155;DHT22;566;48.414;9.118;2023-03-23T09:21:58;15.00;80.00
1155;DHT22;566;48.414;9.118;2023-03-23T09:24:24;15.10;80.00
1155;DHT22;566;48.414;9.118;2023-03-23T09:26:50;15.30;79.50
1155;DHT22;566;48.414;9.118;2023-03-23T09:29:15;15.50;80.00
1155;DHT22;566;48.414;9.118;2023-03-23T09:31:42;15.80;78.20
1155;DHT22;566;48.414;9.118;2023-03-23T09:34:08;15.40;79.10
1155;DHT22;566;48.414;9.118;2023-03-23T09:36:36;15.50;80.20
1155;DHT22;566;48.414;9.118;2023-03-23T09:39:01;15.60;79.30
1155;DHT22;566;48.414;9.118;2023-03-23T09:45:08;15.60;79.40
1155;DHT22;566;48.414;9.118;2023-03-23T09:50:21;15.80;79.20
1155;DHT22;566;48.414;9.118;2023-03-23T09:52:56;15.60;78.70
1155;DHT22;566;48.414;9.118;2023-03-23T09:55:24;15.60;79.10
1155;DHT22;566;48.414;9.118;2023-03-23T09:57:59;15.70;78.60
1155;DHT22;566;48.414;9.118;2023-03-23T10:00:40;15.80;78.90
1155;DHT22;566;48.414;9.118;2023-03-23T10:03:26;16.10;77.90
1155;DHT22;566;48.414;9.118;2023-03-23T10:05:54;15.90;77.40
1155;DHT22;566;48.414;9.118;2023-03-23T10:08:30;15.80;78.10
1155;DHT22;566;48.414;9.118;2023-03-23T10:11:27;15.90;78.50
1155;DHT22;566;48.414;9.118;2023-03-23T10:16:34;16.40;77.00
1155;DHT22;566;48.414;9.118;2023-03-23T10:19:11;16.40;77.10
1155;DHT22;566;48.414;9.118;2023-03-23T10:21:41;16.40;77.40
1155;DHT22;566;48.414;9.118;2023-03-23T10:24:10;16.30;76.70
1155;DHT22;566;48.414;9.118;2023-03-23T10:27:05;16.10;77.60
1155;DHT22;566;48.414;9.118;2023-03-23T10:29:57;15.80;79.20
1155;DHT22;566;48.414;9.118;2023-03-23T10:32:47;15.40;81.20
1155;DHT22;566;48.414;9.118;2023-03-23T10:35:19;15.20;83.30
1155;DHT22;566;48.414;9.118;2023-03-23T10:37:50;14.90;83.60
1155;DHT22;566;48.414;9.118;2023-03-23T10:40:22;14.50;86.00
1155;DHT22;566;48.414;9.118;2023-03-23T10:42:50;14.40;87.10
1155;DHT22;566;48.414;9.118;2023-03-23T10:45:23;14.20;85.60
1155;DHT22;566;48.414;9.118;2023-03-23T10:48:02;14.20;85.80
1155;DHT22;566;48.414;9.118;2023-03-23T10:50:35;14.40;85.70
1155;DHT22;566;48.414;9.118;2023-03-23T10:53:11;14.50;86.10
1155;DHT22;566;48.414;9.118;2023-03-23T10:55:41;14.90;85.10
1155;DHT22;566;48.414;9.118;2023-03-23T10:58:22;15.30;82.10
1155;DHT22;566;48.414;9.118;2023-03-23T11:00:48;15.40;81.40
1155;DHT22;566;48.414;9.118;2023-03-23T11:08:17;16.10;81.60
1155;DHT22;566;48.414;9.118;2023-03-23T11:11:09;16.10;79.10
1155;DHT22;566;48.414;9.118;2023-03-23T11:13:48;16.00;79.60
1155;DHT22;566;48.414;9.118;2023-03-23T11:16:29;15.80;79.20
1155;DHT22;566;48.414;9.118;2023-03-23T11:18:56;15.50;80.60
1155;DHT22;566;48.414;9.118;2023-03-23T11:21:23;15.50;79.90
1155;DHT22;566;48.414;9.118;2023-03-23T11:23:52;15.50;80.30
1155;DHT22;566;48.414;9.118;2023-03-23T11:26:26;15.70;80.00
1155;DHT22;566;48.414;9.118;2023-03-23T11:28:58;15.80;79.00
1155;DHT22;566;48.414;9.118;2023-03-23T11:31:35;15.90;78.50
1155;DHT22;566;48.414;9.118;2023-03-23T11:34:16;16.10;77.20
1155;DHT22;566;48.414;9.118;2023-03-23T11:36:48;16.10;77.40
1155;DHT22;566;48.414;9.118;2023-03-23T11:39:32;16.30;77.30
1155;DHT22;566;48.414;9.118;2023-03-23T11:42:01;16.50;78.20
1155;DHT22;566;48.414;9.118;2023-03-23T11:44:34;16.50;76.50
1155;DHT22;566;48.414;9.118;2023-03-23T11:47:28;16.40;77.40
1155;DHT22;566;48.414;9.118;2023-03-23T11:50:53;16.70;76.00
1155;DHT22;566;48.414;9.118;2023-03-23T11:56:08;16.50;76.60
1155;DHT22;566;48.414;9.118;2023-03-23T11:58:35;16.50;75.60
1155;DHT22;566;48.414;9.118;2023-03-23T12:04:19;16.90;75.70
1155;DHT22;566;48.414;9.118;2023-03-23T12:07:05;17.10;74.80
1155;DHT22;566;48.414;9.118;2023-03-23T12:18:00;17.10;74.50
1155;DHT22;566;48.414;9.118;2023-03-23T12:23:33;16.90;74.80
1155;DHT22;566;48.414;9.118;2023-03-23T12:26:26;16.60;74.40
1155;DHT22;566;48.414;9.118;2023-03-23T12:34:53;16.30;75.60
1155;DHT22;566;48.414;9.118;2023-03-23T12:37:37;16.40;75.20
1155;DHT22;566;48.414;9.118;2023-03-23T12:50:35;16.20;76.10
1155;DHT22;566;48.414;9.118;2023-03-23T12:53:10;16.00;75.60
1155;DHT22;566;48.414;9.118;2023-03-23T12:58:26;16.20;76.20
1155;DHT22;566;48.414;9.118;2023-03-23T13:01:02;16.40;74.90
1155;DHT22;566;48.414;9.118;2023-03-23T13:08:58;16.40;74.00
1155;DHT22;566;48.414;9.118;2023-03-23T13:11:34;16.10;74.00
1155;DHT22;566;48.414;9.118;2023-03-23T13:14:20;16.00;75.00
1155;DHT22;566;48.414;9.118;2023-03-23T13:22:07;16.10;74.90
1155;DHT22;566;48.414;9.118;2023-03-23T13:24:46;16.20;74.40
1155;DHT22;566;48.414;9.118;2023-03-23T13:27:14;16.20;74.90
1155;DHT22;566;48.414;9.118;2023-03-23T13:29:45;16.20;74.60
1155;DHT22;566;48.414;9.118;2023-03-23T13:32:15;16.30;74.80
1155;DHT22;566;48.414;9.118;2023-03-23T13:34:41;16.40;74.90
1155;DHT22;566;48.414;9.118;2023-03-23T13:37:26;16.40;74.40
1155;DHT22;566;48.414;9.118;2023-03-23T13:39:57;16.40;74.80
1155;DHT22;566;48.414;9.118;2023-03-23T13:42:29;16.50;75.10
1155;DHT22;566;48.414;9.118;2023-03-23T13:47:43;16.70;74.20
1155;DHT22;566;48.414;9.118;2023-03-23T14:00:34;16.50;74.40
1155;DHT22;566;48.414;9.118;2023-03-23T14:08:22;16.20;74.80
1155;DHT22;566;48.414;9.118;2023-03-23T14:13:29;16.10;74.60
1155;DHT22;566;48.414;9.118;2023-03-23T14:16:01;16.10;74.40
1155;DHT22;566;48.414;9.118;2023-03-23T14:18:34;16.00;74.50
1155;DHT22;566;48.414;9.118;2023-03-23T14:21:03;15.90;75.00
1155;DHT22;566;48.414;9.118;2023-03-23T14:23:31;15.90;75.50
1155;DHT22;566;48.414;9.118;2023-03-23T14:26:02;15.90;75.80
1155;DHT22;566;48.414;9.118;2023-03-23T14:28:39;15.90;75.70
1155;DHT22;566;48.414;9.118;2023-03-23T14:31:27;15.90;75.40
1155;DHT22;566;48.414;9.118;2023-03-23T14:33:55;15.80;76.00
1155;DHT22;566;48.414;9.118;2023-03-23T14:36:26;15.70;75.90
1155;DHT22;566;48.414;9.118;2023-03-23T14:39:04;15.70;76.50
1155;DHT22;566;48.414;9.118;2023-03-23T14:41:32;15.80;76.50
1155;DHT22;566;48.414;9.118;2023-03-23T14:44:02;15.80;76.20
1155;DHT22;566;48.414;9.118;2023-03-23T14:46:30;15.80;76.60
1155;DHT22;566;48.414;9.118;2023-03-23T14:48:58;15.80;76.60
1155;DHT22;566;48.414;9.118;2023-03-23T14:51:25;15.80;77.10
1155;DHT22;566;48.414;9.118;2023-03-23T14:53:53;15.80;76.80
1155;DHT22;566;48.414;9.118;2023-03-23T14:56:21;15.80;76.80
1155;DHT22;566;48.414;9.118;2023-03-23T14:58:50;15.70;77.40
1155;DHT22;566;48.414;9.118;2023-03-23T15:01:26;15.70;77.60
1155;DHT22;566;48.414;9.118;2023-03-23T15:04:00;15.70;77.30
1155;DHT22;566;48.414;9.118;2023-03-23T15:06:30;15.50;77.30
1155;DHT22;566;48.414;9.118;2023-03-23T15:09:02;15.60;77.70
1155;DHT22;566;48.414;9.118;2023-03-23T15:11:36;15.70;78.00
1155;DHT22;566;48.414;9.118;2023-03-23T15:14:16;15.80;77.20
1155;DHT22;566;48.414;9.118;2023-03-23T15:16:46;15.90;76.80
1155;DHT22;566;48.414;9.118;2023-03-23T15:19:26;15.90;77.20
1155;DHT22;566;48.414;9.118;2023-03-23T15:21:57;15.80;76.80
1155;DHT22;566;48.414;9.118;2023-03-23T15:24:38;15.80;77.20
1155;DHT22;566;48.414;9.118;2023-03-23T15:27:13;15.80;76.90
1155;DHT22;566;48.414;9.118;2023-03-23T15:29:53;15.70;77.80
1155;DHT22;566;48.414;9.118;2023-03-23T15:32:26;15.70;77.30
1155;DHT22;566;48.414;9.118;2023-03-23T15:34:53;15.60;77.40
1155;DHT22;566;48.414;9.118;2023-03-23T15:37:24;15.50;78.00
1155;DHT22;566;48.414;9.118;2023-03-23T15:39:51;15.40;78.00
1155;DHT22;566;48.414;9.118;2023-03-23T15:42:31;15.40;78.10
1155;DHT22;566;48.414;9.118;2023-03-23T15:47:48;15.30;78.90
1155;DHT22;566;48.414;9.118;2023-03-23T15:52:42;15.30;79.20
1155;DHT22;566;48.414;9.118;2023-03-23T15:55:24;15.30;79.30
1155;DHT22;566;48.414;9.118;2023-03-23T15:57:51;15.20;79.30
1155;DHT22;566;48.414;9.118;2023-03-23T16:00:18;15.10;79.60
1155;DHT22;566;48.414;9.118;2023-03-23T16:02:46;15.10;79.80
1155;DHT22;566;48.414;9.118;2023-03-23T16:05:13;15.10;79.70
1155;DHT22;566;48.414;9.118;2023-03-23T16:07:39;15.10;79.90
1155;DHT22;566;48.414;9.118;2023-03-23T16:10:06;15.10;80.00
1155;DHT22;566;48.414;9.118;2023-03-23T16:12:32;15.20;80.20
1155;DHT22;566;48.414;9.118;2023-03-23T16:14:58;15.20;80.40
1155;DHT22;566;48.414;9.118;2023-03-23T16:17:23;15.20;79.80
1155;DHT22;566;48.414;9.118;2023-03-23T16:19:50;15.20;79.90
1155;DHT22;566;48.414;9.118;2023-03-23T16:22:15;15.20;80.00
1155;DHT22;566;48.414;9.118;2023-03-23T16:24:41;15.20;80.30
1155;DHT22;566;48.414;9.118;2023-03-23T16:27:08;15.20;79.00
1155;DHT22;566;48.414;9.118;2023-03-23T16:29:34;15.20;78.80
1155;DHT22;566;48.414;9.118;2023-03-23T16:32:00;15.10;78.60
1155;DHT22;566;48.414;9.118;2023-03-23T16:34:25;15.10;78.80
1155;DHT22;566;48.414;9.118;2023-03-23T16:36:53;15.10;78.50
1155;DHT22;566;48.414;9.118;2023-03-23T16:39:18;15.00;78.30
1155;DHT22;566;48.414;9.118;2023-03-23T16:41:44;15.00;78.20
1155;DHT22;566;48.414;9.118;2023-03-23T16:44:10;15.00;78.40
1155;DHT22;566;48.414;9.118;2023-03-23T16:46:36;15.00;78.40
1155;DHT22;566;48.414;9.118;2023-03-23T16:49:02;15.00;78.50
1155;DHT22;566;48.414;9.118;2023-03-23T16:51:27;15.00;78.40
1155;DHT22;566;48.414;9.118;2023-03-23T16:53:53;15.00;78.60
1155;DHT22;566;48.414;9.118;2023-03-23T16:56:18;14.90;78.70
1155;DHT22;566;48.414;9.118;2023-03-23T16:58:44;14.90;78.60
1155;DHT22;566;48.414;9.118;2023-03-23T17:01:09;14.90;78.60
1155;DHT22;566;48.414;9.118;2023-03-23T17:03:36;14.90;78.40
1155;DHT22;566;48.414;9.118;2023-03-23T17:06:04;14.90;78.20
1155;DHT22;566;48.414;9.118;2023-03-23T17:08:33;14.90;78.50
1155;DHT22;566;48.414;9.118;2023-03-23T17:10:59;14.90;78.70
1155;DHT22;566;48.414;9.118;2023-03-23T17:13:28;14.90;79.00
1155;DHT22;566;48.414;9.118;2023-03-23T17:15:55;14.80;78.60
1155;DHT22;566;48.414;9.118;2023-03-23T17:18:22;14.80;78.70
1155;DHT22;566;48.414;9.118;2023-03-23T17:20:48;14.80;78.80
1155;DHT22;566;48.414;9.118;2023-03-23T17:23:14;14.80;78.60
1155;DHT22;566;48.414;9.118;2023-03-23T17:25:43;14.80;78.80
1155;DHT22;566;48.414;9.118;2023-03-23T17:28:09;14.80;78.80
1155;DHT22;566;48.414;9.118;2023-03-23T17:30:35;14.80;78.80
1155;DHT22;566;48.414;9.118;2023-03-23T17:33:03;14.70;79.00
1155;DHT22;566;48.414;9.118;2023-03-23T17:35:29;14.70;79.00
1155;DHT22;566;48.414;9.118;2023-03-23T17:37:54;14.70;79.00
1155;DHT22;566;48.414;9.118;2023-03-23T17:40:20;14.70;78.90
1155;DHT22;566;48.414;9.118;2023-03-23T17:42:45;14.70;79.30
1155;DHT22;566;48.414;9.118;2023-03-23T17:45:11;14.60;79.50
1155;DHT22;566;48.414;9.118;2023-03-23T17:47:37;14.50;79.60
1155;DHT22;566;48.414;9.118;2023-03-23T17:50:04;14.50;79.80
1155;DHT22;566;48.414;9.118;2023-03-23T17:52:30;14.40;79.80
1155;DHT22;566;48.414;9.118;2023-03-23T17:54:55;14.50;79.60
1155;DHT22;566;48.414;9.118;2023-03-23T17:57:21;14.50;79.60
1155;DHT22;566;48.414;9.118;2023-03-23T17:59:55;14.50;79.30
1155;DHT22;566;48.414;9.118;2023-03-23T18:02:22;14.50;79.50
1155;DHT22;566;48.414;9.118;2023-03-23T18:04:47;14.50;79.70
1155;DHT22;566;48.414;9.118;2023-03-23T18:07:13;14.40;79.90
1155;DHT22;566;48.414;9.118;2023-03-23T18:09:39;14.40;79.90
1155;DHT22;566;48.414;9.118;2023-03-23T18:12:05;14.40;80.00
1155;DHT22;566;48.414;9.118;2023-03-23T18:14:30;14.50;79.80
1155;DHT22;566;48.414;9.118;2023-03-23T18:16:56;14.50;79.70
1155;DHT22;566;48.414;9.118;2023-03-23T18:19:21;14.40;79.70